F/V Harvestor — WDC8229 — position and weather

sailwx.info

Track history (hours):
 
Tides and Currents Weather Stations Pressure Air Temp Water Temp Dewpoint Dewpoint Depression Visibility Wind Speed Wind Dir Waves Ship Positions

F/V Harvestor

Owner: F/V HARVESTOR INC., EDMONDS, WA. More information available from US FCC via Universal Licensing System and Coast Guard Vessel Documentation Center.

Last reported at 2015-Jul-02 17:33 UTC. Time now 2015-Jul-02 18:14 UTC.
Position N 48°34' W 122°41'.

Length 40 m.

Type: Fishing. MMSI: 367083650.

Date/timePositionNaut miles runAvg speedWind from/ knotsBaromVisibWave heightAir tempDewpointWater temp
2015-Jul-02 17:33N 48°34' W 122°41'0 0.0
2015-Jul-02 16:33N 48°34' W 122°41'0 0.0
2015-Jul-02 15:33N 48°34' W 122°41'0 0.0
2015-Jul-02 14:33N 48°34' W 122°41'0 0.0
2015-Jul-02 13:31N 48°34' W 122°41'0 0.0
2015-Jul-02 12:31N 48°34' W 122°41'0 0.0
2015-Jul-02 11:33N 48°34' W 122°41'0 0.0
2015-Jul-02 10:33N 48°34' W 122°41'0 0.0
2015-Jul-02 09:33N 48°34' W 122°41'0 0.0
2015-Jul-02 08:33N 48°34' W 122°41'0 0.0
2015-Jul-02 07:32N 48°34' W 122°41'0 0.0
2015-Jul-02 06:33N 48°34' W 122°41'0 0.0
2015-Jul-02 05:33N 48°34' W 122°41'0 0.0
2015-Jul-02 04:33N 48°34' W 122°41'0 0.0
2015-Jul-02 03:19N 48°34' W 122°41'0 0.0
2015-Jul-02 02:33N 48°34' W 122°41'0 0.0
2015-Jul-02 01:33N 48°34' W 122°41'7 7.1
2015-Jul-02 00:33N 48°27' W 122°43'10 8.3
2015-Jul-01 23:18N 48°20' W 122°31'15 7.9
2015-Jul-01 21:27N 48°05' W 122°27'8 8.2
2015-Jul-01 20:32N 47°59' W 122°21'8 8.3
2015-Jul-01 19:33N 47°51' W 122°23'9 8.5
2015-Jul-01 18:33N 47°43' W 122°26'6 5.6
2015-Jul-01 17:33N 47°38' W 122°23'0 0.0
2015-Jul-01 16:33N 47°38' W 122°23'0 0.0
2015-Jul-01 15:33N 47°38' W 122°23'0 0.0
2015-Jul-01 14:33N 47°38' W 122°23'0 0.0
2015-Jul-01 13:33N 47°38' W 122°23'0 0.0
2015-Jul-01 12:33N 47°38' W 122°23'0 0.0
2015-Jul-01 11:33N 47°38' W 122°23'0 0.0
2015-Jul-01 10:33N 47°38' W 122°23'0 0.0
2015-Jul-01 09:33N 47°38' W 122°23'0 0.0
2015-Jul-01 08:33N 47°38' W 122°23'0 0.0
2015-Jul-01 07:33N 47°38' W 122°23'3 2.6
2015-Jul-01 06:33N 47°39' W 122°26'8 8.0
2015-Jul-01 05:33N 47°47' W 122°27'8 7.8
2015-Jul-01 04:33N 47°55' W 122°30'7 6.6
2015-Jul-01 03:33N 47°60' W 122°37'7 6.9
2015-Jul-01 02:32N 48°06' W 122°40'10 7.5
2015-Jul-01 01:10N 48°15' W 122°49'6 8.9
2015-Jul-01 00:26N 48°21' W 122°47'7 7.5
2015-Jun-30 23:33N 48°27' W 122°44'5 5.3
2015-Jun-30 22:33N 48°32' W 122°41'1 1.5
2015-Jun-30 21:33N 48°34' W 122°41'0 0.0
2015-Jun-30 20:29N 48°34' W 122°41'0 0.0
2015-Jun-30 19:33N 48°34' W 122°41'0 0.1
2015-Jun-30 18:33N 48°34' W 122°41'0 0.0
2015-Jun-30 17:33N 48°34' W 122°41'0 0.0
2015-Jun-30 16:33N 48°34' W 122°41'0 0.0
2015-Jun-30 15:33N 48°34' W 122°41'0 0.0
2015-Jun-30 14:33N 48°34' W 122°41'0 0.0
2015-Jun-30 13:33N 48°34' W 122°41'0 0.0
2015-Jun-30 12:33N 48°34' W 122°41'0 0.0
2015-Jun-30 11:33N 48°34' W 122°41'0 0.0
2015-Jun-30 10:33N 48°34' W 122°41'0 0.0
2015-Jun-30 09:30N 48°34' W 122°41'0 0.0
2015-Jun-30 08:33N 48°34' W 122°41'0 0.0
2015-Jun-30 07:33N 48°34' W 122°41'0 0.0
2015-Jun-30 06:33N 48°34' W 122°41'0 0.0
2015-Jun-30 05:33N 48°34' W 122°41'0 0.0
2015-Jun-30 04:33N 48°34' W 122°41'0 0.0
2015-Jun-30 03:33N 48°34' W 122°41'0 0.0
2015-Jun-30 02:33N 48°34' W 122°41'0 0.0
2015-Jun-30 01:33N 48°34' W 122°41'5 4.7
2015-Jun-30 00:33N 48°29' W 122°43'12 8.4
2015-Jun-29 23:08N 48°20' W 122°32'5 8.2
2015-Jun-29 22:33N 48°15' W 122°32'10 8.1
2015-Jun-29 21:16N 48°05' W 122°27'7 8.9
2015-Jun-29 20:28N 47°60' W 122°21'8 8.5
2015-Jun-29 19:33N 47°52' W 122°23'2 8.8
2015-Jun-29 19:22N 47°51' W 122°24'7 8.9
2015-Jun-29 18:33N 47°44' W 122°26'0 8.7
2015-Jun-29 18:32N 47°43' W 122°26'6 6.0
2015-Jun-29 17:33N 47°38' W 122°23'0 0.0
2015-Jun-29 17:27N 47°38' W 122°23'0 0.0
2015-Jun-29 16:33N 47°38' W 122°23'0 0.0
2015-Jun-29 16:32N 47°38' W 122°23'0 0.0
2015-Jun-29 15:33N 47°38' W 122°23'0 0.0
2015-Jun-29 15:32N 47°38' W 122°23'0 0.0
2015-Jun-29 14:33N 47°38' W 122°23'0 0.0
2015-Jun-29 14:32N 47°38' W 122°23'0 0.0
2015-Jun-29 13:33N 47°38' W 122°23'0 0.0
2015-Jun-29 13:32N 47°38' W 122°23'0 0.0
2015-Jun-29 12:33N 47°38' W 122°23'0 0.0
2015-Jun-29 12:31N 47°38' W 122°23'0 0.0
2015-Jun-29 11:33N 47°38' W 122°23'0 0.0
2015-Jun-29 11:31N 47°38' W 122°23'0 0.0
2015-Jun-29 10:33N 47°38' W 122°23'0 0.0
2015-Jun-29 10:31N 47°38' W 122°23'0 0.0
2015-Jun-29 09:33N 47°38' W 122°23'0 0.0
2015-Jun-29 09:31N 47°38' W 122°23'0 0.0
2015-Jun-29 08:33N 47°38' W 122°23'0 0.0
2015-Jun-29 08:26N 47°38' W 122°23'0 0.0
2015-Jun-29 07:33N 47°38' W 122°23'0 0.0
2015-Jun-29 06:33N 47°38' W 122°23'0 0.0
2015-Jun-29 05:33N 47°38' W 122°23'0 0.0
2015-Jun-29 04:33N 47°38' W 122°23'0 0.0
2015-Jun-29 03:33N 47°38' W 122°23'0 0.0
2015-Jun-29 02:33N 47°38' W 122°23'0 0.0
2015-Jun-29 01:33N 47°38' W 122°23'0 0.0
2015-Jun-29 00:33N 47°38' W 122°23'0 0.0
2015-Jun-28 23:33N 47°38' W 122°23'0 0.0
2015-Jun-28 22:33N 47°38' W 122°23'0 0.0
2015-Jun-28 21:33N 47°38' W 122°23'6 6.1
2015-Jun-28 20:33N 47°34' W 122°30'1 1.5
2015-Jun-28 19:33N 47°34' W 122°33'0 0.0
2015-Jun-28 18:33N 47°34' W 122°33'0 0.0
2015-Jun-28 17:33N 47°34' W 122°33'0 0.0
2015-Jun-28 16:33N 47°34' W 122°33'0 0.0
2015-Jun-28 15:33N 47°34' W 122°33'2 2.3
2015-Jun-28 14:33N 47°35' W 122°29'5 5.3
2015-Jun-28 13:33N 47°38' W 122°23'0 0.0
2015-Jun-28 12:33N 47°38' W 122°23'0 0.0
2015-Jun-28 11:33N 47°38' W 122°23'0 0.0
2015-Jun-28 10:33N 47°38' W 122°23'0 0.0
2015-Jun-28 09:33N 47°38' W 122°23'0 0.0
2015-Jun-28 08:33N 47°38' W 122°23'0 0.0
2015-Jun-28 07:31N 47°38' W 122°23'0 0.0
2015-Jun-28 06:33N 47°38' W 122°23'0 0.0
2015-Jun-28 05:33N 47°38' W 122°23'0 0.0
2015-Jun-28 04:47N 47°38' W 122°23'0 0.0
2015-Jun-28 04:33N 47°38' W 122°23'0 0.0
2015-Jun-28 04:31N 47°38' W 122°23'0 0.0
2015-Jun-28 03:33N 47°38' W 122°23'0 0.0
2015-Jun-28 03:15N 47°38' W 122°23'0 0.0
2015-Jun-28 02:33N 47°38' W 122°23'0 0.0
2015-Jun-28 02:30N 47°38' W 122°23'0 0.0
2015-Jun-28 01:33N 47°38' W 122°23'0 0.0
2015-Jun-28 01:29N 47°38' W 122°23'0 0.0
2015-Jun-28 00:33N 47°38' W 122°23'0 0.0
2015-Jun-28 00:29N 47°38' W 122°23'0 0.0
2015-Jun-27 23:33N 47°38' W 122°23'0 0.0
2015-Jun-27 23:24N 47°38' W 122°23'0 0.0
2015-Jun-27 22:33N 47°38' W 122°23'0 0.0
2015-Jun-27 22:33N 47°38' W 122°23'0 0.0
2015-Jun-27 21:33N 47°38' W 122°23'0 0.0
2015-Jun-27 21:33N 47°38' W 122°23'0 0.0
2015-Jun-27 20:33N 47°38' W 122°23'0 0.0
2015-Jun-27 20:33N 47°38' W 122°23'0 0.0
2015-Jun-27 19:22N 47°38' W 122°23'0 0.0
2015-Jun-27 19:21N 47°38' W 122°23'0 0.0
2015-Jun-27 18:32N 47°38' W 122°23'0 0.0
2015-Jun-27 16:22N 47°38' W 122°23'0 0.0
2015-Jun-27 15:33N 47°38' W 122°23'0 0.0
2015-Jun-27 14:33N 47°38' W 122°23'0 0.0
2015-Jun-27 13:33N 47°38' W 122°23'0 0.0
2015-Jun-27 12:33N 47°38' W 122°23'0 0.0
2015-Jun-27 11:33N 47°38' W 122°23'0 0.0
2015-Jun-27 10:33N 47°38' W 122°23'0 0.0
2015-Jun-27 09:33N 47°38' W 122°23'0 0.0
2015-Jun-27 08:33N 47°38' W 122°23'0 0.0
2015-Jun-27 07:33N 47°38' W 122°23'0 0.0
2015-Jun-27 06:33N 47°38' W 122°23'0 0.0
2015-Jun-27 05:33N 47°38' W 122°23'0 0.0
2015-Jun-27 03:24N 47°38' W 122°23'0 0.0
2015-Jun-27 02:33N 47°38' W 122°23'0 0.0
2015-Jun-27 01:33N 47°38' W 122°23'0 0.0
2015-Jun-27 00:33N 47°38' W 122°23'0 0.0
2015-Jun-26 23:33N 47°38' W 122°23'0 0.0
2015-Jun-26 22:35N 47°38' W 122°23'0 0.0
2015-Jun-26 22:33N 47°38' W 122°23'0 0.0
2015-Jun-26 22:30N 47°38' W 122°23'0 0.0
2015-Jun-26 21:33N 47°38' W 122°23'0 0.0
2015-Jun-26 21:29N 47°38' W 122°23'0 0.0
2015-Jun-26 20:33N 47°38' W 122°23'0 0.0
2015-Jun-26 20:29N 47°38' W 122°23'0 0.0
2015-Jun-26 19:33N 47°38' W 122°23'0 0.0
2015-Jun-26 19:29N 47°38' W 122°23'0 0.0
2015-Jun-26 18:32N 47°38' W 122°23'0 0.0
2015-Jun-26 18:28N 47°38' W 122°23'0 0.0
2015-Jun-26 17:33N 47°38' W 122°23'0 0.0
2015-Jun-26 17:32N 47°38' W 122°23'0 0.0
2015-Jun-26 16:33N 47°38' W 122°23'0 0.0
2015-Jun-26 16:32N 47°38' W 122°23'0 0.0
2015-Jun-26 15:33N 47°38' W 122°23'0 0.0
2015-Jun-26 15:32N 47°38' W 122°23'0 0.0
2015-Jun-26 14:33N 47°38' W 122°23'0 0.0
2015-Jun-26 14:32N 47°38' W 122°23'0 0.0
2015-Jun-26 13:33N 47°38' W 122°23'0 0.0
2015-Jun-26 13:31N 47°38' W 122°23'0 0.0
2015-Jun-26 12:26N 47°38' W 122°23'0 0.0
2015-Jun-26 12:24N 47°38' W 122°23'0 0.0
2015-Jun-26 11:33N 47°38' W 122°23'0 0.0
2015-Jun-26 11:33N 47°38' W 122°23'0 0.0
2015-Jun-26 10:33N 47°38' W 122°23'0 0.1
2015-Jun-26 10:27N 47°38' W 122°23'0 0.0
2015-Jun-26 09:33N 47°38' W 122°23'0 0.0
2015-Jun-26 09:31N 47°38' W 122°23'0 0.0
2015-Jun-26 08:33N 47°38' W 122°23'0 0.0
2015-Jun-26 08:31N 47°38' W 122°23'0 0.0
2015-Jun-26 07:33N 47°38' W 122°23'0 0.0
2015-Jun-26 07:30N 47°38' W 122°23'0 0.0
2015-Jun-26 06:33N 47°38' W 122°23'0 0.0
2015-Jun-26 06:03N 47°38' W 122°23'0 0.0
2015-Jun-26 05:33N 47°38' W 122°23'1 1.4
2015-Jun-26 04:33N 47°38' W 122°25'0 8.1
2015-Jun-26 04:32N 47°38' W 122°25'8 8.0
2015-Jun-26 03:33N 47°46' W 122°27'0 9.2
2015-Jun-26 03:31N 47°46' W 122°27'9 9.0
2015-Jun-26 02:33N 47°54' W 122°30'0 8.9
2015-Jun-26 02:31N 47°55' W 122°30'8 8.2
2015-Jun-26 01:30N 48°01' W 122°38'3 7.6
2015-Jun-26 01:09N 48°04' W 122°39'5 7.4
2015-Jun-26 00:31N 48°08' W 122°43'7 7.4
2015-Jun-25 23:33N 48°14' W 122°49'9 8.9
2015-Jun-25 22:33N 48°22' W 122°46'9 9.2
2015-Jun-25 21:33N 48°31' W 122°42'3 2.7
2015-Jun-25 20:33N 48°34' W 122°41'0 0.1
2015-Jun-25 19:33N 48°34' W 122°41'0 0.1
2015-Jun-25 18:33N 48°34' W 122°41'0 0.0
2015-Jun-25 17:33N 48°34' W 122°41'0 0.0
2015-Jun-25 16:33N 48°34' W 122°41'0 0.0
2015-Jun-25 15:33N 48°34' W 122°41'0 0.0
2015-Jun-25 14:32N 48°34' W 122°41'4 4.5
2015-Jun-25 13:33N 48°30' W 122°43'7 6.2
2015-Jun-25 12:29N 48°25' W 122°36'1 0.1
2015-Jun-25 01:33N 48°25' W 122°35'4 3.6
2015-Jun-25 00:33N 48°21' W 122°33'16 7.0
2015-Jun-24 22:15N 48°06' W 122°27'6 8.0
2015-Jun-24 21:32N 48°01' W 122°21'8 8.1
2015-Jun-24 20:33N 47°54' W 122°22'4 8.5
2015-Jun-24 20:06N 47°50' W 122°24'5 9.2
2015-Jun-24 19:33N 47°45' W 122°26'0 8.7
2015-Jun-24 19:30N 47°45' W 122°26'7 7.5
2015-Jun-24 18:33N 47°38' W 122°23'0 2.9
2015-Jun-24 18:30N 47°38' W 122°23'0 0.1
2015-Jun-24 17:33N 47°38' W 122°23'0 0.1
2015-Jun-24 17:29N 47°38' W 122°23'0 0.0
2015-Jun-24 16:33N 47°38' W 122°23'0 0.0
2015-Jun-24 16:28N 47°38' W 122°23'0 0.0
2015-Jun-24 15:33N 47°38' W 122°23'0 0.0
2015-Jun-24 15:31N 47°38' W 122°23'0 0.0
2015-Jun-24 14:33N 47°38' W 122°23'0 0.0
2015-Jun-24 14:31N 47°38' W 122°23'0 0.0
2015-Jun-24 13:33N 47°38' W 122°23'0 0.0
2015-Jun-24 13:30N 47°38' W 122°23'0 0.0
2015-Jun-24 12:33N 47°38' W 122°23'0 0.0
2015-Jun-24 12:30N 47°38' W 122°23'0 0.0
2015-Jun-24 11:33N 47°38' W 122°23'0 0.0
2015-Jun-24 11:29N 47°38' W 122°23'0 0.0
2015-Jun-24 10:33N 47°38' W 122°23'0 0.0
2015-Jun-24 10:29N 47°38' W 122°23'0 0.0
2015-Jun-24 09:34N 47°38' W 122°23'0 0.0
2015-Jun-24 09:33N 47°38' W 122°23'0 0.0
2015-Jun-24 08:33N 47°38' W 122°23'0 0.0
2015-Jun-24 08:32N 47°38' W 122°23'0 0.0
2015-Jun-24 07:33N 47°38' W 122°23'0 0.0
2015-Jun-24 07:32N 47°38' W 122°23'0 0.0
2015-Jun-24 06:33N 47°38' W 122°23'0 0.0
2015-Jun-24 06:30N 47°38' W 122°23'0 0.0
2015-Jun-24 06:00N 47°38' W 122°23'2 4.7
2015-Jun-24 05:33N 47°39' W 122°26'8 8.5
2015-Jun-24 04:33N 47°47' W 122°25'1 8.7
2015-Jun-24 04:24N 47°49' W 122°26'8 9.0
2015-Jun-24 03:33N 47°56' W 122°29'2 8.7
2015-Jun-24 03:22N 47°57' W 122°31'8 9.5
2015-Jun-24 02:33N 48°03' W 122°37'12 9.8
2015-Jun-24 01:21N 48°13' W 122°47'410.8
2015-Jun-24 01:01N 48°17' W 122°46'4 8.3
2015-Jun-24 00:30N 48°21' W 122°44'3 9.0
2015-Jun-24 00:10N 48°23' W 122°42'4 7.2
2015-Jun-23 23:33N 48°28' W 122°43'5 4.5
2015-Jun-23 22:33N 48°32' W 122°40'2 2.1
2015-Jun-23 21:31N 48°34' W 122°41'0 0.0
2015-Jun-23 20:28N 48°34' W 122°41'0 0.0
2015-Jun-23 19:28N 48°34' W 122°41'0 0.5
2015-Jun-23 19:05N 48°33' W 122°41'57 2.4
2015-Jun-22 19:33N 47°38' W 122°23'0 0.0
2015-Jun-22 18:33N 47°38' W 122°23'  
Track history (hours):
 
Tides and Currents Weather Stations Pressure Air Temp Water Temp Dewpoint Dewpoint Depression Visibility Wind Speed Wind Dir Waves Ship Positions

F/V Harvestor

Owner: F/V HARVESTOR INC., EDMONDS, WA. More information available from US FCC via Universal Licensing System and Coast Guard Vessel Documentation Center.

Last reported at 2015-Jul-02 17:33 UTC. Time now 2015-Jul-02 18:14 UTC.
Position N 48°34' W 122°41'.

Length 40 m.

Type: Fishing. MMSI: 367083650.

Date/timePositionNaut miles runAvg speedWind from/ knotsBaromVisibWave heightAir tempDewpointWater temp
2015-Jul-02 17:33N 48°34' W 122°41'0 0.0
2015-Jul-02 16:33N 48°34' W 122°41'0 0.0
2015-Jul-02 15:33N 48°34' W 122°41'0 0.0
2015-Jul-02 14:33N 48°34' W 122°41'0 0.0
2015-Jul-02 13:31N 48°34' W 122°41'0 0.0
2015-Jul-02 12:31N 48°34' W 122°41'0 0.0
2015-Jul-02 11:33N 48°34' W 122°41'0 0.0
2015-Jul-02 10:33N 48°34' W 122°41'0 0.0
2015-Jul-02 09:33N 48°34' W 122°41'0 0.0
2015-Jul-02 08:33N 48°34' W 122°41'0 0.0
2015-Jul-02 07:32N 48°34' W 122°41'0 0.0
2015-Jul-02 06:33N 48°34' W 122°41'0 0.0
2015-Jul-02 05:33N 48°34' W 122°41'0 0.0
2015-Jul-02 04:33N 48°34' W 122°41'0 0.0
2015-Jul-02 03:19N 48°34' W 122°41'0 0.0
2015-Jul-02 02:33N 48°34' W 122°41'0 0.0
2015-Jul-02 01:33N 48°34' W 122°41'7 7.1
2015-Jul-02 00:33N 48°27' W 122°43'10 8.3
2015-Jul-01 23:18N 48°20' W 122°31'15 7.9
2015-Jul-01 21:27N 48°05' W 122°27'8 8.2
2015-Jul-01 20:32N 47°59' W 122°21'8 8.3
2015-Jul-01 19:33N 47°51' W 122°23'9 8.5
2015-Jul-01 18:33N 47°43' W 122°26'6 5.6
2015-Jul-01 17:33N 47°38' W 122°23'0 0.0
2015-Jul-01 16:33N 47°38' W 122°23'0 0.0
2015-Jul-01 15:33N 47°38' W 122°23'0 0.0
2015-Jul-01 14:33N 47°38' W 122°23'0 0.0
2015-Jul-01 13:33N 47°38' W 122°23'0 0.0
2015-Jul-01 12:33N 47°38' W 122°23'0 0.0
2015-Jul-01 11:33N 47°38' W 122°23'0 0.0
2015-Jul-01 10:33N 47°38' W 122°23'0 0.0
2015-Jul-01 09:33N 47°38' W 122°23'0 0.0
2015-Jul-01 08:33N 47°38' W 122°23'0 0.0
2015-Jul-01 07:33N 47°38' W 122°23'3 2.6
2015-Jul-01 06:33N 47°39' W 122°26'8 8.0
2015-Jul-01 05:33N 47°47' W 122°27'8 7.8
2015-Jul-01 04:33N 47°55' W 122°30'7 6.6
2015-Jul-01 03:33N 47°60' W 122°37'7 6.9
2015-Jul-01 02:32N 48°06' W 122°40'10 7.5
2015-Jul-01 01:10N 48°15' W 122°49'6 8.9
2015-Jul-01 00:26N 48°21' W 122°47'7 7.5
2015-Jun-30 23:33N 48°27' W 122°44'5 5.3
2015-Jun-30 22:33N 48°32' W 122°41'1 1.5
2015-Jun-30 21:33N 48°34' W 122°41'0 0.0
2015-Jun-30 20:29N 48°34' W 122°41'0 0.0
2015-Jun-30 19:33N 48°34' W 122°41'0 0.1
2015-Jun-30 18:33N 48°34' W 122°41'0 0.0
2015-Jun-30 17:33N 48°34' W 122°41'0 0.0
2015-Jun-30 16:33N 48°34' W 122°41'0 0.0
2015-Jun-30 15:33N 48°34' W 122°41'0 0.0
2015-Jun-30 14:33N 48°34' W 122°41'0 0.0
2015-Jun-30 13:33N 48°34' W 122°41'0 0.0
2015-Jun-30 12:33N 48°34' W 122°41'0 0.0
2015-Jun-30 11:33N 48°34' W 122°41'0 0.0
2015-Jun-30 10:33N 48°34' W 122°41'0 0.0
2015-Jun-30 09:30N 48°34' W 122°41'0 0.0
2015-Jun-30 08:33N 48°34' W 122°41'0 0.0
2015-Jun-30 07:33N 48°34' W 122°41'0 0.0
2015-Jun-30 06:33N 48°34' W 122°41'0 0.0
2015-Jun-30 05:33N 48°34' W 122°41'0 0.0
2015-Jun-30 04:33N 48°34' W 122°41'0 0.0
2015-Jun-30 03:33N 48°34' W 122°41'0 0.0
2015-Jun-30 02:33N 48°34' W 122°41'0 0.0
2015-Jun-30 01:33N 48°34' W 122°41'5 4.7
2015-Jun-30 00:33N 48°29' W 122°43'12 8.4
2015-Jun-29 23:08N 48°20' W 122°32'5 8.2
2015-Jun-29 22:33N 48°15' W 122°32'10 8.1
2015-Jun-29 21:16N 48°05' W 122°27'7 8.9
2015-Jun-29 20:28N 47°60' W 122°21'8 8.5
2015-Jun-29 19:33N 47°52' W 122°23'2 8.8
2015-Jun-29 19:22N 47°51' W 122°24'7 8.9
2015-Jun-29 18:33N 47°44' W 122°26'0 8.7
2015-Jun-29 18:32N 47°43' W 122°26'6 6.0
2015-Jun-29 17:33N 47°38' W 122°23'0 0.0
2015-Jun-29 17:27N 47°38' W 122°23'0 0.0
2015-Jun-29 16:33N 47°38' W 122°23'0 0.0
2015-Jun-29 16:32N 47°38' W 122°23'0 0.0
2015-Jun-29 15:33N 47°38' W 122°23'0 0.0
2015-Jun-29 15:32N 47°38' W 122°23'0 0.0
2015-Jun-29 14:33N 47°38' W 122°23'0 0.0
2015-Jun-29 14:32N 47°38' W 122°23'0 0.0
2015-Jun-29 13:33N 47°38' W 122°23'0 0.0
2015-Jun-29 13:32N 47°38' W 122°23'0 0.0
2015-Jun-29 12:33N 47°38' W 122°23'0 0.0
2015-Jun-29 12:31N 47°38' W 122°23'0 0.0
2015-Jun-29 11:33N 47°38' W 122°23'0 0.0
2015-Jun-29 11:31N 47°38' W 122°23'0 0.0
2015-Jun-29 10:33N 47°38' W 122°23'0 0.0
2015-Jun-29 10:31N 47°38' W 122°23'0 0.0
2015-Jun-29 09:33N 47°38' W 122°23'0 0.0
2015-Jun-29 09:31N 47°38' W 122°23'0 0.0
2015-Jun-29 08:33N 47°38' W 122°23'0 0.0
2015-Jun-29 08:26N 47°38' W 122°23'0 0.0
2015-Jun-29 07:33N 47°38' W 122°23'0 0.0
2015-Jun-29 06:33N 47°38' W 122°23'0 0.0
2015-Jun-29 05:33N 47°38' W 122°23'0 0.0
2015-Jun-29 04:33N 47°38' W 122°23'0 0.0
2015-Jun-29 03:33N 47°38' W 122°23'0 0.0
2015-Jun-29 02:33N 47°38' W 122°23'0 0.0
2015-Jun-29 01:33N 47°38' W 122°23'0 0.0
2015-Jun-29 00:33N 47°38' W 122°23'0 0.0
2015-Jun-28 23:33N 47°38' W 122°23'0 0.0
2015-Jun-28 22:33N 47°38' W 122°23'0 0.0
2015-Jun-28 21:33N 47°38' W 122°23'6 6.1
2015-Jun-28 20:33N 47°34' W 122°30'1 1.5
2015-Jun-28 19:33N 47°34' W 122°33'0 0.0
2015-Jun-28 18:33N 47°34' W 122°33'0 0.0
2015-Jun-28 17:33N 47°34' W 122°33'0 0.0
2015-Jun-28 16:33N 47°34' W 122°33'0 0.0
2015-Jun-28 15:33N 47°34' W 122°33'2 2.3
2015-Jun-28 14:33N 47°35' W 122°29'5 5.3
2015-Jun-28 13:33N 47°38' W 122°23'0 0.0
2015-Jun-28 12:33N 47°38' W 122°23'0 0.0
2015-Jun-28 11:33N 47°38' W 122°23'0 0.0
2015-Jun-28 10:33N 47°38' W 122°23'0 0.0
2015-Jun-28 09:33N 47°38' W 122°23'0 0.0
2015-Jun-28 08:33N 47°38' W 122°23'0 0.0
2015-Jun-28 07:31N 47°38' W 122°23'0 0.0
2015-Jun-28 06:33N 47°38' W 122°23'0 0.0
2015-Jun-28 05:33N 47°38' W 122°23'0 0.0
2015-Jun-28 04:47N 47°38' W 122°23'0 0.0
2015-Jun-28 04:33N 47°38' W 122°23'0 0.0
2015-Jun-28 04:31N 47°38' W 122°23'0 0.0
2015-Jun-28 03:33N 47°38' W 122°23'0 0.0
2015-Jun-28 03:15N 47°38' W 122°23'0 0.0
2015-Jun-28 02:33N 47°38' W 122°23'0 0.0
2015-Jun-28 02:30N 47°38' W 122°23'0 0.0
2015-Jun-28 01:33N 47°38' W 122°23'0 0.0
2015-Jun-28 01:29N 47°38' W 122°23'0 0.0
2015-Jun-28 00:33N 47°38' W 122°23'0 0.0
2015-Jun-28 00:29N 47°38' W 122°23'0 0.0
2015-Jun-27 23:33N 47°38' W 122°23'0 0.0
2015-Jun-27 23:24N 47°38' W 122°23'0 0.0
2015-Jun-27 22:33N 47°38' W 122°23'0 0.0
2015-Jun-27 22:33N 47°38' W 122°23'0 0.0
2015-Jun-27 21:33N 47°38' W 122°23'0 0.0
2015-Jun-27 21:33N 47°38' W 122°23'0 0.0
2015-Jun-27 20:33N 47°38' W 122°23'0 0.0
2015-Jun-27 20:33N 47°38' W 122°23'0 0.0
2015-Jun-27 19:22N 47°38' W 122°23'0 0.0
2015-Jun-27 19:21N 47°38' W 122°23'0 0.0
2015-Jun-27 18:32N 47°38' W 122°23'0 0.0
2015-Jun-27 16:22N 47°38' W 122°23'0 0.0
2015-Jun-27 15:33N 47°38' W 122°23'0 0.0
2015-Jun-27 14:33N 47°38' W 122°23'0 0.0
2015-Jun-27 13:33N 47°38' W 122°23'0 0.0
2015-Jun-27 12:33N 47°38' W 122°23'0 0.0
2015-Jun-27 11:33N 47°38' W 122°23'0 0.0
2015-Jun-27 10:33N 47°38' W 122°23'0 0.0
2015-Jun-27 09:33N 47°38' W 122°23'0 0.0
2015-Jun-27 08:33N 47°38' W 122°23'0 0.0
2015-Jun-27 07:33N 47°38' W 122°23'0 0.0
2015-Jun-27 06:33N 47°38' W 122°23'0 0.0
2015-Jun-27 05:33N 47°38' W 122°23'0 0.0
2015-Jun-27 03:24N 47°38' W 122°23'0 0.0
2015-Jun-27 02:33N 47°38' W 122°23'0 0.0
2015-Jun-27 01:33N 47°38' W 122°23'0 0.0
2015-Jun-27 00:33N 47°38' W 122°23'0 0.0
2015-Jun-26 23:33N 47°38' W 122°23'0 0.0
2015-Jun-26 22:35N 47°38' W 122°23'0 0.0
2015-Jun-26 22:33N 47°38' W 122°23'0 0.0
2015-Jun-26 22:30N 47°38' W 122°23'0 0.0
2015-Jun-26 21:33N 47°38' W 122°23'0 0.0
2015-Jun-26 21:29N 47°38' W 122°23'0 0.0
2015-Jun-26 20:33N 47°38' W 122°23'0 0.0
2015-Jun-26 20:29N 47°38' W 122°23'0 0.0
2015-Jun-26 19:33N 47°38' W 122°23'0 0.0
2015-Jun-26 19:29N 47°38' W 122°23'0 0.0
2015-Jun-26 18:32N 47°38' W 122°23'0 0.0
2015-Jun-26 18:28N 47°38' W 122°23'0 0.0
2015-Jun-26 17:33N 47°38' W 122°23'0 0.0
2015-Jun-26 17:32N 47°38' W 122°23'0 0.0
2015-Jun-26 16:33N 47°38' W 122°23'0 0.0
2015-Jun-26 16:32N 47°38' W 122°23'0 0.0
2015-Jun-26 15:33N 47°38' W 122°23'0 0.0
2015-Jun-26 15:32N 47°38' W 122°23'0 0.0
2015-Jun-26 14:33N 47°38' W 122°23'0 0.0
2015-Jun-26 14:32N 47°38' W 122°23'0 0.0
2015-Jun-26 13:33N 47°38' W 122°23'0 0.0
2015-Jun-26 13:31N 47°38' W 122°23'0 0.0
2015-Jun-26 12:26N 47°38' W 122°23'0 0.0
2015-Jun-26 12:24N 47°38' W 122°23'0 0.0
2015-Jun-26 11:33N 47°38' W 122°23'0 0.0
2015-Jun-26 11:33N 47°38' W 122°23'0 0.0
2015-Jun-26 10:33N 47°38' W 122°23'0 0.1
2015-Jun-26 10:27N 47°38' W 122°23'0 0.0
2015-Jun-26 09:33N 47°38' W 122°23'0 0.0
2015-Jun-26 09:31N 47°38' W 122°23'0 0.0
2015-Jun-26 08:33N 47°38' W 122°23'0 0.0
2015-Jun-26 08:31N 47°38' W 122°23'0 0.0
2015-Jun-26 07:33N 47°38' W 122°23'0 0.0
2015-Jun-26 07:30N 47°38' W 122°23'0 0.0
2015-Jun-26 06:33N 47°38' W 122°23'0 0.0
2015-Jun-26 06:03N 47°38' W 122°23'0 0.0
2015-Jun-26 05:33N 47°38' W 122°23'1 1.4
2015-Jun-26 04:33N 47°38' W 122°25'0 8.1
2015-Jun-26 04:32N 47°38' W 122°25'8 8.0
2015-Jun-26 03:33N 47°46' W 122°27'0 9.2
2015-Jun-26 03:31N 47°46' W 122°27'9 9.0
2015-Jun-26 02:33N 47°54' W 122°30'0 8.9
2015-Jun-26 02:31N 47°55' W 122°30'8 8.2
2015-Jun-26 01:30N 48°01' W 122°38'3 7.6
2015-Jun-26 01:09N 48°04' W 122°39'5 7.4
2015-Jun-26 00:31N 48°08' W 122°43'7 7.4
2015-Jun-25 23:33N 48°14' W 122°49'9 8.9
2015-Jun-25 22:33N 48°22' W 122°46'9 9.2
2015-Jun-25 21:33N 48°31' W 122°42'3 2.7
2015-Jun-25 20:33N 48°34' W 122°41'0 0.1
2015-Jun-25 19:33N 48°34' W 122°41'0 0.1
2015-Jun-25 18:33N 48°34' W 122°41'0 0.0
2015-Jun-25 17:33N 48°34' W 122°41'0 0.0
2015-Jun-25 16:33N 48°34' W 122°41'0 0.0
2015-Jun-25 15:33N 48°34' W 122°41'0 0.0
2015-Jun-25 14:32N 48°34' W 122°41'4 4.5
2015-Jun-25 13:33N 48°30' W 122°43'7 6.2
2015-Jun-25 12:29N 48°25' W 122°36'1 0.1
2015-Jun-25 01:33N 48°25' W 122°35'4 3.6
2015-Jun-25 00:33N 48°21' W 122°33'16 7.0
2015-Jun-24 22:15N 48°06' W 122°27'6 8.0
2015-Jun-24 21:32N 48°01' W 122°21'8 8.1
2015-Jun-24 20:33N 47°54' W 122°22'4 8.5
2015-Jun-24 20:06N 47°50' W 122°24'5 9.2
2015-Jun-24 19:33N 47°45' W 122°26'0 8.7
2015-Jun-24 19:30N 47°45' W 122°26'7 7.5
2015-Jun-24 18:33N 47°38' W 122°23'0 2.9
2015-Jun-24 18:30N 47°38' W 122°23'0 0.1
2015-Jun-24 17:33N 47°38' W 122°23'0 0.1
2015-Jun-24 17:29N 47°38' W 122°23'0 0.0
2015-Jun-24 16:33N 47°38' W 122°23'0 0.0
2015-Jun-24 16:28N 47°38' W 122°23'0 0.0
2015-Jun-24 15:33N 47°38' W 122°23'0 0.0
2015-Jun-24 15:31N 47°38' W 122°23'0 0.0
2015-Jun-24 14:33N 47°38' W 122°23'0 0.0
2015-Jun-24 14:31N 47°38' W 122°23'0 0.0
2015-Jun-24 13:33N 47°38' W 122°23'0 0.0
2015-Jun-24 13:30N 47°38' W 122°23'0 0.0
2015-Jun-24 12:33N 47°38' W 122°23'0 0.0
2015-Jun-24 12:30N 47°38' W 122°23'0 0.0
2015-Jun-24 11:33N 47°38' W 122°23'0 0.0
2015-Jun-24 11:29N 47°38' W 122°23'0 0.0
2015-Jun-24 10:33N 47°38' W 122°23'0 0.0
2015-Jun-24 10:29N 47°38' W 122°23'0 0.0
2015-Jun-24 09:34N 47°38' W 122°23'0 0.0
2015-Jun-24 09:33N 47°38' W 122°23'0 0.0
2015-Jun-24 08:33N 47°38' W 122°23'0 0.0
2015-Jun-24 08:32N 47°38' W 122°23'0 0.0
2015-Jun-24 07:33N 47°38' W 122°23'0 0.0
2015-Jun-24 07:32N 47°38' W 122°23'0 0.0
2015-Jun-24 06:33N 47°38' W 122°23'0 0.0
2015-Jun-24 06:30N 47°38' W 122°23'0 0.0
2015-Jun-24 06:00N 47°38' W 122°23'2 4.7
2015-Jun-24 05:33N 47°39' W 122°26'8 8.5
2015-Jun-24 04:33N 47°47' W 122°25'1 8.7
2015-Jun-24 04:24N 47°49' W 122°26'8 9.0
2015-Jun-24 03:33N 47°56' W 122°29'2 8.7
2015-Jun-24 03:22N 47°57' W 122°31'8 9.5
2015-Jun-24 02:33N 48°03' W 122°37'12 9.8
2015-Jun-24 01:21N 48°13' W 122°47'410.8
2015-Jun-24 01:01N 48°17' W 122°46'4 8.3
2015-Jun-24 00:30N 48°21' W 122°44'3 9.0
2015-Jun-24 00:10N 48°23' W 122°42'4 7.2
2015-Jun-23 23:33N 48°28' W 122°43'5 4.5
2015-Jun-23 22:33N 48°32' W 122°40'2 2.1
2015-Jun-23 21:31N 48°34' W 122°41'0 0.0
2015-Jun-23 20:28N 48°34' W 122°41'0 0.0
2015-Jun-23 19:28N 48°34' W 122°41'0 0.5
2015-Jun-23 19:05N 48°33' W 122°41'57 2.4
2015-Jun-22 19:33N 47°38' W 122°23'0 0.0
2015-Jun-22 18:33N 47°38' W 122°23'  

Dump ship's entire track history